Time;durP1;ratioP1;P1;durP2;ratioP2;P2;SDS_P1;SDS_P2;PMS_P1;PMS_P2;Temp;Humidity;BMP_temperature;BMP_pressure;BME280_temperature;BME280_humidity;BME280_pressure;Samples;Min_cycle;Max_cycle;Signal;HPM_P1;HPM_P2
2022/03/27 00:01:30;;;;;;;5.88;5.38;;;10.10;99.90;;;;;;5095760;28;20040;-76
2022/03/27 00:03:55;;;;;;;5.30;4.90;;;10.10;99.90;;;;;;5095418;28;20035;-76
2022/03/27 00:06:21;;;;;;;6.43;5.82;;;10.20;99.90;;;;;;5094796;28;20103;-76
2022/03/27 00:08:47;;;;;;;7.25;6.13;;;10.20;99.90;;;;;;5094894;28;20048;-76
2022/03/27 00:11:24;;;;;;;6.30;5.72;;;10.20;99.90;;;;;;5083417;28;20024;-76
2022/03/27 00:14:06;;;;;;;6.95;6.35;;;10.30;99.90;;;;;;5094932;28;20462;-76
2022/03/27 00:16:32;;;;;;;6.30;5.80;;;10.20;99.90;;;;;;5095031;28;20110;-76
2022/03/27 00:18:59;;;;;;;7.63;6.85;;;10.20;99.90;;;;;;5095174;28;20063;-77
2022/03/27 00:21:27;;;;;;;7.28;6.55;;;10.20;99.90;;;;;;5094325;28;20376;-76
2022/03/27 00:23:54;;;;;;;7.00;6.50;;;10.10;99.90;;;;;;5095061;28;20027;-76
2022/03/27 00:26:21;;;;;;;6.40;5.97;;;10.20;99.90;;;;;;5095084;28;20495;-75
2022/03/27 00:28:48;;;;;;;6.75;6.25;;;10.20;99.90;;;;;;5094763;28;20534;-76
2022/03/27 00:31:14;;;;;;;5.93;5.53;;;10.20;99.90;;;;;;5094293;28;20028;-76
2022/03/27 00:33:42;;;;;;;6.35;5.85;;;10.20;99.90;;;;;;5094179;28;20032;-75
2022/03/27 00:36:10;;;;;;;7.25;6.25;;;10.20;99.90;;;;;;5094757;28;20036;-76
2022/03/27 00:38:36;;;;;;;5.47;5.03;;;10.20;99.90;;;;;;5095005;28;20497;-76
2022/03/27 00:41:02;;;;;;;5.97;5.47;;;10.20;99.90;;;;;;5094310;28;20020;-76
2022/03/27 00:43:28;;;;;;;5.75;5.05;;;10.10;99.90;;;;;;5094898;28;20038;-76
2022/03/27 00:45:55;;;;;;;5.90;5.43;;;10.10;99.90;;;;;;5094369;28;20108;-76
2022/03/27 00:48:22;;;;;;;6.03;5.53;;;10.20;99.90;;;;;;5093986;28;20036;-76
2022/03/27 00:50:49;;;;;;;5.75;5.25;;;10.10;99.90;;;;;;5094553;28;20464;-77
2022/03/27 00:53:16;;;;;;;6.40;6.00;;;10.20;99.90;;;;;;5094550;28;20032;-76
2022/03/27 00:55:42;;;;;;;6.63;6.07;;;10.20;99.90;;;;;;5093954;28;20472;-76
2022/03/27 00:58:08;;;;;;;6.38;5.88;;;10.20;99.90;;;;;;5094030;28;20040;-75
2022/03/27 01:00:45;;;;;;;6.28;5.70;;;10.20;99.90;;;;;;5094352;28;20065;-78
2022/03/27 01:03:12;;;;;;;9.50;6.55;;;10.10;99.90;;;;;;5093824;28;20127;-76
2022/03/27 01:05:42;;;;;;;6.40;5.82;;;10.20;99.90;;;;;;5094374;28;20024;-76
2022/03/27 01:08:10;;;;;;;6.95;6.45;;;10.10;99.90;;;;;;5093782;28;20051;-76
2022/03/27 01:10:36;;;;;;;5.60;5.20;;;10.10;99.90;;;;;;5093708;28;20032;-76
2022/03/27 01:13:13;;;;;;;7.47;6.82;;;10.10;99.90;;;;;;5094000;28;20106;-76
2022/03/27 01:15:54;;;;;;;7.32;6.25;;;10.10;99.90;;;;;;5094312;28;20082;-78
2022/03/27 01:18:21;;;;;;;6.28;5.78;;;10.10;99.90;;;;;;5093532;28;20058;-76
2022/03/27 01:20:47;;;;;;;7.57;6.95;;;10.10;99.90;;;;;;5093981;28;20024;-76
2022/03/27 01:23:15;;;;;;;7.38;6.78;;;10.10;99.90;;;;;;5093249;28;20070;-76
2022/03/27 01:25:43;;;;;;;7.60;6.90;;;10.10;99.90;;;;;;5094055;28;20051;-77
2022/03/27 01:28:12;;;;;;;8.73;6.63;;;10.10;99.90;;;;;;5093340;28;20480;-77
2022/03/27 01:30:37;;;;;;;7.38;6.72;;;10.00;99.90;;;;;;5093249;28;20055;-76
2022/03/27 01:33:05;;;;;;;6.82;6.32;;;10.10;99.90;;;;;;5093488;28;20447;-77
2022/03/27 01:35:31;;;;;;;7.38;6.68;;;10.00;99.90;;;;;;5093433;28;20445;-76
2022/03/27 01:37:57;;;;;;;8.02;6.72;;;10.10;99.90;;;;;;5093054;28;20434;-77
2022/03/27 01:40:23;;;;;;;8.18;7.35;;;10.00;99.90;;;;;;5093172;28;20107;-76
2022/03/27 01:42:49;;;;;;;7.80;7.10;;;10.00;99.90;;;;;;5095516;28;20498;-77
2022/03/27 01:45:15;;;;;;;7.38;6.78;;;10.00;99.90;;;;;;5092007;28;20031;-77
2022/03/27 01:47:41;;;;;;;8.13;7.43;;;9.90;99.90;;;;;;5093084;28;20032;-76
2022/03/27 01:50:07;;;;;;;9.15;8.02;;;10.00;99.90;;;;;;5093165;28;20031;-77
2022/03/27 01:52:33;;;;;;;8.57;7.72;;;10.00;99.90;;;;;;5094117;28;20080;-76
2022/03/27 01:54:59;;;;;;;7.97;7.28;;;10.10;99.90;;;;;;5093417;28;20028;-77
2022/03/27 01:57:25;;;;;;;10.82;8.27;;;10.00;99.90;;;;;;5093295;28;20036;-76
2022/03/27 01:59:51;;;;;;;9.15;8.35;;;10.00;99.90;;;;;;5092774;28;20031;-76
2022/03/27 02:02:23;;;;;;;9.15;8.05;;;10.00;99.90;;;;;;5092652;28;20165;-75
2022/03/27 02:04:55;;;;;;;8.90;8.00;;;10.00;99.90;;;;;;5094295;28;20040;-76
2022/03/27 02:07:22;;;;;;;9.20;8.30;;;10.00;99.90;;;;;;5093285;28;20207;-76
2022/03/27 02:09:48;;;;;;;8.55;7.75;;;10.00;99.90;;;;;;5093109;28;20055;-75
2022/03/27 02:12:14;;;;;;;11.80;8.85;;;9.90;99.90;;;;;;5093324;28;20039;-74
2022/03/27 02:14:40;;;;;;;9.50;8.32;;;9.90;99.90;;;;;;5092963;28;20020;-77
2022/03/27 02:17:07;;;;;;;10.68;8.73;;;9.90;99.90;;;;;;5093219;28;20024;-77
2022/03/27 02:19:33;;;;;;;9.95;8.82;;;9.90;99.90;;;;;;5092968;28;20032;-76
2022/03/27 02:21:58;;;;;;;11.82;9.15;;;9.90;99.90;;;;;;5093472;28;20035;-76
2022/03/27 02:24:24;;;;;;;10.30;9.27;;;9.80;99.90;;;;;;5092624;28;20020;-76
2022/03/27 02:26:52;;;;;;;12.48;10.38;;;9.80;99.90;;;;;;5092334;28;20039;-76
2022/03/27 02:29:18;;;;;;;14.50;10.60;;;9.80;99.90;;;;;;5092473;28;20024;-77
2022/03/27 02:31:44;;;;;;;12.77;9.40;;;9.90;99.90;;;;;;5092965;28;20031;-77
2022/03/27 02:34:10;;;;;;;11.55;10.32;;;9.80;99.90;;;;;;5091917;28;20024;-77
2022/03/27 02:36:36;;;;;;;12.55;9.80;;;9.70;99.90;;;;;;5092247;28;20065;-76
2022/03/27 02:39:02;;;;;;;10.63;9.63;;;9.70;99.90;;;;;;5092510;28;20024;-76
2022/03/27 02:41:28;;;;;;;11.07;9.98;;;9.70;99.90;;;;;;5091778;28;20476;-76
2022/03/27 02:43:54;;;;;;;11.13;10.02;;;9.70;99.90;;;;;;5092322;28;20027;-75
2022/03/27 02:46:19;;;;;;;12.43;11.23;;;9.70;99.90;;;;;;5092304;28;20028;-76
2022/03/27 02:48:45;;;;;;;12.00;10.25;;;9.70;99.90;;;;;;5092168;28;20020;-76
2022/03/27 02:51:10;;;;;;;11.40;10.30;;;9.60;99.90;;;;;;5092226;28;20020;-75
2022/03/27 02:53:36;;;;;;;11.43;10.32;;;9.60;99.90;;;;;;5094967;28;20071;-76
2022/03/27 02:56:06;;;;;;;15.48;12.10;;;9.70;99.90;;;;;;5092601;28;20383;-77
2022/03/27 02:58:32;;;;;;;13.75;11.32;;;9.70;99.90;;;;;;5092143;28;20036;-77
2022/03/27 03:00:58;;;;;;;12.13;10.90;;;9.60;99.90;;;;;;5092324;28;20146;-76
2022/03/27 03:03:23;;;;;;;12.25;10.80;;;9.60;99.90;;;;;;5091607;28;20024;-76
2022/03/27 03:05:49;;;;;;;13.32;11.30;;;9.60;99.90;;;;;;5091866;28;20039;-76
2022/03/27 03:08:19;;;;;;;14.23;11.48;;;9.50;99.90;;;;;;5091539;28;20492;-76
2022/03/27 03:10:45;;;;;;;15.65;11.70;;;9.40;99.90;;;;;;5091753;28;20028;-76
2022/03/27 03:13:11;;;;;;;13.45;11.07;;;9.40;99.90;;;;;;5091859;28;20107;-76
2022/03/27 03:15:42;;;;;;;13.98;11.57;;;9.40;99.90;;;;;;5092371;28;20516;-76
2022/03/27 03:18:10;;;;;;;12.75;11.07;;;9.30;99.90;;;;;;5091284;28;20032;-77
2022/03/27 03:20:36;;;;;;;16.30;12.60;;;9.30;99.90;;;;;;5092869;28;20047;-78
2022/03/27 03:23:02;;;;;;;14.13;12.13;;;9.30;99.90;;;;;;5091977;28;20054;-75
2022/03/27 03:25:29;;;;;;;15.13;12.85;;;9.30;99.90;;;;;;5091598;28;20028;-75
2022/03/27 03:27:54;;;;;;;14.57;11.68;;;9.30;99.90;;;;;;5092074;28;20522;-76
2022/03/27 03:30:20;;;;;;;15.13;12.73;;;9.20;99.90;;;;;;5093272;28;20103;-77
2022/03/27 03:32:46;;;;;;;14.05;11.77;;;9.20;99.90;;;;;;5091905;28;20050;-77
2022/03/27 03:35:12;;;;;;;14.90;12.73;;;9.20;99.90;;;;;;5092034;28;20021;-76
2022/03/27 03:37:37;;;;;;;14.63;11.63;;;9.10;99.90;;;;;;5091415;28;20506;-77
2022/03/27 03:40:08;;;;;;;16.67;12.55;;;9.10;99.90;;;;;;5091845;28;20504;-76
2022/03/27 03:42:36;;;;;;;15.88;11.27;;;9.10;99.90;;;;;;5091943;28;20115;-75
2022/03/27 03:45:05;;;;;;;16.40;11.77;;;9.10;99.90;;;;;;5091409;28;20365;-76
2022/03/27 03:47:31;;;;;;;15.43;12.10;;;9.10;99.90;;;;;;5091304;28;20024;-76
2022/03/27 03:49:56;;;;;;;15.15;12.43;;;9.00;99.90;;;;;;5091996;28;20047;-77
2022/03/27 03:52:22;;;;;;;14.07;11.40;;;9.10;99.90;;;;;;5091065;28;20020;-77
2022/03/27 03:54:48;;;;;;;13.63;10.60;;;9.10;99.90;;;;;;5091572;28;20436;-76
2022/03/27 03:57:13;;;;;;;14.63;10.80;;;9.10;99.90;;;;;;5091554;28;20119;-76
2022/03/27 03:59:39;;;;;;;13.85;10.88;;;9.00;99.90;;;;;;5091104;28;20103;-76
2022/03/27 04:02:05;;;;;;;13.35;10.57;;;8.90;99.90;;;;;;5091534;28;20089;-74
2022/03/27 04:04:33;;;;;;;13.90;11.27;;;8.80;99.90;;;;;;5091956;28;20020;-76
2022/03/27 04:07:04;;;;;;;15.68;12.23;;;8.90;99.90;;;;;;5091424;28;20040;-76
2022/03/27 04:09:30;;;;;;;14.50;10.75;;;8.70;99.90;;;;;;5095173;28;20067;-76
2022/03/27 04:11:56;;;;;;;12.80;10.45;;;8.70;99.90;;;;;;5095030;28;20051;-76
2022/03/27 04:14:22;;;;;;;15.75;11.63;;;8.60;99.90;;;;;;5094689;28;20054;-77
2022/03/27 04:16:50;;;;;;;12.23;10.02;;;8.60;99.90;;;;;;5095258;28;20020;-76
2022/03/27 04:19:16;;;;;;;15.52;10.82;;;8.40;99.90;;;;;;5094664;28;20432;-77
2022/03/27 04:21:42;;;;;;;13.13;10.15;;;8.40;99.90;;;;;;5095017;28;20120;-76
2022/03/27 04:24:09;;;;;;;13.30;10.40;;;8.40;99.90;;;;;;5095031;28;20082;-76
2022/03/27 04:26:35;;;;;;;13.35;10.07;;;8.40;99.90;;;;;;5094592;28;20107;-76
2022/03/27 04:29:00;;;;;;;16.67;11.63;;;8.40;99.90;;;;;;5095261;28;20020;-76
2022/03/27 04:31:28;;;;;;;16.70;11.55;;;8.40;99.90;;;;;;5095057;28;20357;-77
2022/03/27 04:33:53;;;;;;;13.50;10.57;;;8.30;99.90;;;;;;5094639;28;20035;-77
2022/03/27 04:36:19;;;;;;;13.77;10.13;;;8.20;99.90;;;;;;5094744;28;20024;-76
2022/03/27 04:38:44;;;;;;;13.70;10.80;;;8.30;99.90;;;;;;5094729;28;20027;-76
2022/03/27 04:41:10;;;;;;;15.68;10.82;;;8.30;99.90;;;;;;5094167;28;20099;-76
2022/03/27 04:43:35;;;;;;;16.75;11.50;;;8.30;99.90;;;;;;5094285;28;20027;-76
2022/03/27 04:46:01;;;;;;;16.05;11.48;;;8.20;99.90;;;;;;5094949;28;20103;-76
2022/03/27 04:48:27;;;;;;;12.70;9.88;;;8.30;99.90;;;;;;5093967;28;20502;-76
2022/03/27 04:50:53;;;;;;;13.15;10.70;;;8.20;99.90;;;;;;5094496;28;20031;-77
2022/03/27 04:53:19;;;;;;;16.95;11.50;;;8.20;99.90;;;;;;5094212;28;20024;-76
2022/03/27 04:55:45;;;;;;;13.88;10.35;;;8.10;99.90;;;;;;5094196;28;20035;-76
2022/03/27 04:58:11;;;;;;;14.48;9.82;;;8.20;99.90;;;;;;5094133;28;20027;-76
2022/03/27 05:00:37;;;;;;;14.23;11.05;;;8.20;99.90;;;;;;5095086;28;20028;-77
2022/03/27 05:03:03;;;;;;;15.05;11.30;;;8.20;99.90;;;;;;5094096;28;20125;-76
2022/03/27 05:05:28;;;;;;;19.00;11.18;;;8.20;99.90;;;;;;5094276;28;20028;-77
2022/03/27 05:07:54;;;;;;;15.38;11.23;;;8.20;99.90;;;;;;5097416;28;20068;-76
2022/03/27 05:10:20;;;;;;;17.17;11.35;;;8.20;99.90;;;;;;5094222;28;20555;-76
2022/03/27 05:12:46;;;;;;;14.18;10.55;;;8.20;99.90;;;;;;5096941;28;20101;-77
2022/03/27 05:15:12;;;;;;;13.63;10.48;;;8.20;99.90;;;;;;5094166;28;20471;-77
2022/03/27 05:17:56;;;;;;;12.05;10.13;;;8.20;99.90;;;;;;5093725;28;20053;-76
2022/03/27 05:20:22;;;;;;;12.20;9.95;;;8.10;99.90;;;;;;5093696;28;20032;-76
2022/03/27 05:22:48;;;;;;;15.52;10.88;;;8.10;99.90;;;;;;5093349;28;20040;-76
2022/03/27 05:25:15;;;;;;;15.65;10.07;;;8.10;99.90;;;;;;5094951;28;20016;-76
2022/03/27 05:27:45;;;;;;;15.05;10.27;;;8.10;99.90;;;;;;5101900;28;20020;-76
2022/03/27 05:30:11;;;;;;;16.98;11.40;;;8.20;99.90;;;;;;5104627;28;20040;-77
2022/03/27 05:32:37;;;;;;;14.48;10.95;;;8.10;99.90;;;;;;5096248;28;20028;-76
2022/03/27 05:35:03;;;;;;;17.42;10.82;;;8.10;99.90;;;;;;5099891;28;20024;-76
2022/03/27 05:37:28;;;;;;;15.30;10.23;;;8.10;99.90;;;;;;5099947;28;20035;-76
2022/03/27 05:39:54;;;;;;;15.55;11.27;;;8.10;99.90;;;;;;5100067;28;20028;-76
2022/03/27 05:42:19;;;;;;;14.73;10.85;;;8.10;99.90;;;;;;5098614;28;20043;-76
2022/03/27 05:44:45;;;;;;;15.27;10.63;;;8.10;99.90;;;;;;5095633;28;20399;-76
2022/03/27 05:47:11;;;;;;;17.20;10.70;;;8.10;99.90;;;;;;5104193;28;20031;-77
2022/03/27 05:49:37;;;;;;;14.73;10.45;;;8.10;99.90;;;;;;5101758;28;20494;-76
2022/03/27 05:52:02;;;;;;;13.80;10.30;;;8.10;99.90;;;;;;5093259;28;20016;-78
2022/03/27 05:54:28;;;;;;;14.65;10.93;;;8.10;99.90;;;;;;5092828;28;20305;-76
2022/03/27 05:56:53;;;;;;;14.32;10.80;;;8.10;99.90;;;;;;5093590;28;20048;-76
2022/03/27 05:59:19;;;;;;;15.20;10.77;;;8.10;99.90;;;;;;5074197;28;20106;-78
2022/03/27 06:01:45;;;;;;;14.95;10.73;;;8.10;99.90;;;;;;5093006;28;20039;-76
2022/03/27 06:04:10;;;;;;;14.95;10.05;;;8.10;99.90;;;;;;5092436;28;20032;-77
2022/03/27 06:06:36;;;;;;;13.85;9.93;;;8.10;99.90;;;;;;5092521;28;20069;-76
2022/03/27 06:09:01;;;;;;;12.70;9.63;;;8.10;99.90;;;;;;5092949;28;20036;-77
2022/03/27 06:11:28;;;;;;;14.38;9.38;;;8.00;99.90;;;;;;5092873;28;20024;-76
2022/03/27 06:13:54;;;;;;;11.43;8.77;;;8.10;99.90;;;;;;5092899;28;20477;-77
2022/03/27 06:16:20;;;;;;;11.68;9.23;;;8.10;99.90;;;;;;5092547;28;20108;-76
2022/03/27 06:18:47;;;;;;;12.40;9.10;;;8.10;99.90;;;;;;5092506;28;20050;-75
2022/03/27 06:21:13;;;;;;;11.00;8.93;;;7.90;99.90;;;;;;5092459;28;20028;-76
2022/03/27 06:23:38;;;;;;;12.90;8.82;;;7.90;99.90;;;;;;5093111;28;20528;-76
2022/03/27 06:26:04;;;;;;;11.10;9.15;;;7.90;99.90;;;;;;5093427;28;20127;-76
2022/03/27 06:28:29;;;;;;;13.20;9.23;;;7.90;99.90;;;;;;5060196;28;20043;-75
2022/03/27 06:30:58;;;;;;;11.13;9.32;;;8.00;99.90;;;;;;5072412;28;20017;-76
2022/03/27 06:33:23;;;;;;;11.68;9.93;;;7.90;99.90;;;;;;5070670;28;20023;-77
2022/03/27 06:35:49;;;;;;;13.70;10.20;;;8.00;99.90;;;;;;5070833;28;20126;-76
2022/03/27 06:38:14;;;;;;;13.00;9.90;;;8.00;99.90;;;;;;5070674;28;20048;-75
2022/03/27 06:40:40;;;;;;;13.02;9.63;;;8.00;99.90;;;;;;5071197;28;20035;-75
2022/03/27 06:43:05;;;;;;;13.77;9.82;;;8.00;99.90;;;;;;5069741;28;20043;-75
2022/03/27 06:45:31;;;;;;;10.90;8.88;;;8.00;99.90;;;;;;5070164;28;20082;-76
2022/03/27 06:47:57;;;;;;;14.07;10.40;;;8.00;99.90;;;;;;5071417;28;20482;-76
2022/03/27 06:50:23;;;;;;;11.65;9.43;;;8.00;99.90;;;;;;5072387;28;20019;-76
2022/03/27 06:52:50;;;;;;;13.30;9.18;;;8.00;99.90;;;;;;5070651;28;20020;-76
2022/03/27 06:55:16;;;;;;;9.18;7.72;;;8.10;99.90;;;;;;5070155;28;20020;-76
2022/03/27 06:57:42;;;;;;;11.13;8.38;;;8.10;99.90;;;;;;5070518;28;20472;-76
2022/03/27 07:03:03;;;;;;;9.02;7.60;;;8.20;99.90;;;;;;5072699;28;20044;-75
2022/03/27 07:05:30;;;;;;;11.10;8.10;;;8.30;99.90;;;;;;5071249;28;20032;-75
2022/03/27 07:07:56;;;;;;;9.40;7.45;;;8.40;99.90;;;;;;5071245;28;20124;-75
2022/03/27 07:10:22;;;;;;;8.88;7.40;;;8.40;99.90;;;;;;5071500;28;20112;-75
2022/03/27 07:12:48;;;;;;;8.63;7.43;;;8.40;99.90;;;;;;5079865;28;20021;-75
2022/03/27 07:15:13;;;;;;;9.13;8.20;;;8.30;99.90;;;;;;5106338;28;20382;-75
2022/03/27 07:17:50;;;;;;;12.00;8.15;;;8.20;99.90;;;;;;5110814;28;20604;-75
2022/03/27 07:20:24;;;;;;;9.25;8.27;;;8.20;99.90;;;;;;5105490;28;20058;-75
2022/03/27 07:22:51;;;;;;;9.48;8.18;;;8.10;99.90;;;;;;5104604;28;20031;-75
2022/03/27 07:25:16;;;;;;;10.60;8.13;;;8.20;99.90;;;;;;5110018;28;20092;-75
2022/03/27 07:27:42;;;;;;;9.43;8.45;;;8.10;99.90;;;;;;5110805;28;20479;-75
2022/03/27 07:30:09;;;;;;;9.13;7.93;;;8.10;99.90;;;;;;5108648;28;20024;-75
2022/03/27 07:32:35;;;;;;;9.65;7.95;;;8.20;99.90;;;;;;5110280;28;20491;-75
2022/03/27 07:35:00;;;;;;;10.25;8.52;;;8.30;99.90;;;;;;5109961;28;20071;-75
2022/03/27 07:37:27;;;;;;;9.98;8.63;;;8.30;99.90;;;;;;5109126;28;20085;-74
2022/03/27 07:39:53;;;;;;;8.95;8.05;;;8.50;99.90;;;;;;5110330;28;20030;-74
2022/03/27 07:42:18;;;;;;;9.27;7.75;;;8.50;99.90;;;;;;5110912;28;20032;-74
2022/03/27 07:44:44;;;;;;;9.13;8.02;;;8.50;99.90;;;;;;5113563;28;20016;-75
2022/03/27 07:47:09;;;;;;;10.55;7.97;;;8.60;99.90;;;;;;5114029;28;20015;-75
2022/03/27 07:49:35;;;;;;;10.88;8.57;;;8.60;99.90;;;;;;5114450;28;20504;-75
2022/03/27 07:52:05;;;;;;;11.80;8.27;;;9.20;99.90;;;;;;5113418;28;20035;-75
2022/03/27 07:54:31;;;;;;;12.03;8.60;;;8.70;99.90;;;;;;5113592;28;20433;-74
2022/03/27 07:56:56;;;;;;;10.18;8.43;;;8.70;99.90;;;;;;5114454;28;20019;-74
2022/03/27 07:59:22;;;;;;;8.93;7.80;;;8.90;99.90;;;;;;5112593;28;20028;-74
2022/03/27 08:01:48;;;;;;;9.43;7.75;;;8.90;99.90;;;;;;5114225;28;20188;-74
2022/03/27 08:04:14;;;;;;;9.10;7.72;;;9.00;99.90;;;;;;5112983;28;20023;-75
2022/03/27 08:06:40;;;;;;;9.27;8.02;;;9.10;99.90;;;;;;5113593;28;20048;-75
2022/03/27 08:09:06;;;;;;;9.02;7.82;;;9.20;99.90;;;;;;5113892;28;20032;-76
2022/03/27 08:11:32;;;;;;;12.40;8.68;;;9.20;99.90;;;;;;5113417;28;20391;-76
2022/03/27 08:13:58;;;;;;;9.85;8.18;;;9.30;99.90;;;;;;5113816;28;20068;-74
2022/03/27 08:16:24;;;;;;;11.25;7.47;;;9.30;99.90;;;;;;5113529;28;20110;-75
2022/03/27 08:18:50;;;;;;;7.30;6.60;;;9.30;99.90;;;;;;5113669;28;20039;-75
2022/03/27 08:21:15;;;;;;;10.48;7.47;;;9.30;99.90;;;;;;5113293;28;20023;-76
2022/03/27 08:23:41;;;;;;;9.32;7.30;;;9.40;99.90;;;;;;5114494;28;20413;-75
2022/03/27 08:28:50;;;;;;;7.35;6.60;;;9.40;99.90;;;;;;5093687;28;20174;-72
2022/03/27 08:31:16;;;;;;;11.38;7.90;;;9.50;99.90;;;;;;5092126;28;20469;-72
2022/03/27 08:33:42;;;;;;;9.73;8.18;;;9.50;99.90;;;;;;5082832;28;20121;-73
2022/03/27 08:36:07;;;;;;;8.25;7.35;;;9.60;99.90;;;;;;5091594;28;20023;-73
2022/03/27 08:38:33;;;;;;;9.93;7.20;;;9.60;99.90;;;;;;5088774;28;20027;-73
2022/03/27 08:41:01;;;;;;;8.70;7.53;;;9.60;99.90;;;;;;5090514;28;20063;-73
2022/03/27 08:43:31;;;;;;;9.43;6.72;;;10.30;99.90;;;;;;5096152;28;20130;-72
2022/03/27 08:45:58;;;;;;;7.67;6.87;;;9.80;99.90;;;;;;5113508;28;20028;-72
2022/03/27 08:48:24;;;;;;;10.50;7.50;;;9.70;99.90;;;;;;5112344;28;20348;-72
2022/03/27 08:50:58;;;;;;;8.05;7.25;;;9.80;99.90;;;;;;5113172;28;20027;-73
2022/03/27 08:53:31;;;;;;;9.25;6.90;;;9.90;99.90;;;;;;5111591;28;20532;-73
2022/03/27 08:56:06;;;;;;;9.25;6.93;;;10.00;99.90;;;;;;5113468;28;20044;-72
2022/03/27 08:58:37;;;;;;;10.70;7.57;;;10.00;99.90;;;;;;5112814;28;20039;-73
2022/03/27 09:01:04;;;;;;;7.88;7.10;;;10.10;99.90;;;;;;5087215;28;20078;-73
2022/03/27 09:03:33;;;;;;;9.88;7.28;;;10.10;99.90;;;;;;5085479;28;20041;-71
2022/03/27 09:06:00;;;;;;;8.00;7.20;;;10.10;99.90;;;;;;5097679;28;20141;-73
2022/03/27 09:08:25;;;;;;;11.15;6.70;;;10.20;99.90;;;;;;5112041;28;20048;-72
2022/03/27 09:10:51;;;;;;;9.95;6.28;;;10.30;99.90;;;;;;5113155;28;20459;-72
2022/03/27 09:13:18;;;;;;;7.35;6.65;;;10.30;99.90;;;;;;5112894;28;20019;-73
2022/03/27 09:15:45;;;;;;;6.97;6.28;;;10.40;99.90;;;;;;5112382;28;20051;-74
2022/03/27 09:18:14;;;;;;;8.38;6.95;;;10.50;99.90;;;;;;5111946;28;20547;-75
2022/03/27 09:20:43;;;;;;;6.90;6.20;;;10.60;99.90;;;;;;5112784;28;20031;-73
2022/03/27 09:23:21;;;;;;;6.40;5.60;;;10.60;99.90;;;;;;5111460;28;20093;-73
2022/03/27 09:25:53;;;;;;;6.85;6.15;;;10.70;99.90;;;;;;5101451;28;20023;-74
2022/03/27 09:28:34;;;;;;;8.45;5.88;;;10.80;99.90;;;;;;5111783;28;20038;-73
2022/03/27 09:31:06;;;;;;;6.22;5.47;;;10.80;99.90;;;;;;5106261;28;20016;-73
2022/03/27 09:33:50;;;;;;;8.60;5.35;;;10.90;99.90;;;;;;5112840;28;20087;-73
2022/03/27 09:36:21;;;;;;;6.95;6.35;;;10.90;99.90;;;;;;5112285;28;20020;-73
2022/03/27 09:39:16;;;;;;;6.95;5.75;;;11.00;99.90;;;;;;5105190;28;20024;-73
2022/03/27 09:41:46;;;;;;;8.40;6.18;;;11.10;99.90;;;;;;5095067;28;20111;-73
2022/03/27 09:44:20;;;;;;;6.25;5.65;;;11.10;99.90;;;;;;5111349;28;20028;-73
2022/03/27 09:46:47;;;;;;;6.15;5.65;;;11.30;99.90;;;;;;5112270;28;20077;-73
2022/03/27 09:49:14;;;;;;;8.52;6.60;;;11.30;99.90;;;;;;5111888;28;20027;-73
2022/03/27 09:52:00;;;;;;;7.40;5.55;;;11.40;99.90;;;;;;5111337;28;20081;-74
2022/03/27 09:54:28;;;;;;;6.13;5.53;;;11.40;99.90;;;;;;5111784;28;20360;-74
2022/03/27 09:56:54;;;;;;;5.93;5.28;;;11.40;99.90;;;;;;5111634;28;20019;-73
2022/03/27 09:59:28;;;;;;;7.85;5.78;;;12.00;99.90;;;;;;5111031;28;20103;-74
2022/03/27 10:01:54;;;;;;;6.70;5.40;;;11.50;99.90;;;;;;5111866;28;20100;-73
2022/03/27 10:04:20;;;;;;;6.95;5.18;;;11.50;99.90;;;;;;5110262;28;20035;-73
2022/03/27 10:06:45;;;;;;;6.60;5.63;;;12.40;99.90;;;;;;5110980;28;20042;-73
2022/03/27 10:09:12;;;;;;;6.63;5.65;;;11.70;99.90;;;;;;5093349;28;20042;-73
2022/03/27 10:11:40;;;;;;;6.88;5.45;;;11.80;99.90;;;;;;5111029;28;20024;-74
2022/03/27 10:14:07;;;;;;;5.63;5.13;;;11.80;99.90;;;;;;5111331;28;20031;-73
2022/03/27 10:16:35;;;;;;;8.40;5.38;;;12.00;99.90;;;;;;5111333;28;20061;-73
2022/03/27 10:19:06;;;;;;;5.50;5.00;;;11.90;99.90;;;;;;5111154;28;20050;-74
2022/03/27 10:21:34;;;;;;;5.93;5.43;;;11.90;99.90;;;;;;5111256;28;20040;-73
2022/03/27 10:24:12;;;;;;;5.10;4.60;;;12.10;99.90;;;;;;5112435;28;20926;-73
2022/03/27 10:26:39;;;;;;;6.78;5.20;;;12.10;99.90;;;;;;5110842;28;20051;-74
2022/03/27 10:29:06;;;;;;;5.35;4.78;;;12.20;99.10;;;;;;5111029;28;20028;-73
2022/03/27 10:31:33;;;;;;;5.65;4.72;;;12.30;99.80;;;;;;5104499;28;20022;-73
2022/03/27 10:34:00;;;;;;;5.80;4.72;;;12.30;99.20;;;;;;5111420;28;20479;-73
2022/03/27 10:36:56;;;;;;;5.97;5.10;;;12.30;98.20;;;;;;5110869;28;20395;-73
2022/03/27 10:39:31;;;;;;;5.68;4.97;;;12.40;98.00;;;;;;5105060;28;20495;-72
2022/03/27 10:42:15;;;;;;;6.32;4.30;;;12.40;96.60;;;;;;5085526;28;20044;-73
2022/03/27 10:44:50;;;;;;;7.47;4.70;;;12.40;95.50;;;;;;5084230;28;20031;-73
2022/03/27 10:47:23;;;;;;;4.85;4.45;;;12.50;96.60;;;;;;5088799;28;20015;-72
2022/03/27 10:50:01;;;;;;;5.53;4.30;;;12.50;96.10;;;;;;5097266;28;20024;-73
2022/03/27 10:52:50;;;;;;;5.38;4.40;;;12.60;96.90;;;;;;5104220;28;20035;-73
2022/03/27 10:55:16;;;;;;;4.97;4.43;;;12.60;94.80;;;;;;5075196;28;20043;-73
2022/03/27 10:57:47;;;;;;;4.30;3.70;;;12.70;95.40;;;;;;5110065;28;20023;-73
2022/03/27 11:00:14;;;;;;;5.32;3.88;;;12.80;93.30;;;;;;5109532;28;20047;-73
2022/03/27 11:02:52;;;;;;;4.75;4.00;;;12.80;93.80;;;;;;5110157;28;20035;-74
2022/03/27 11:05:36;;;;;;;5.10;4.50;;;12.90;93.50;;;;;;5110446;28;20103;-74
2022/03/27 11:08:17;;;;;;;7.80;3.78;;;13.10;93.90;;;;;;5110109;28;20414;-74
2022/03/27 11:10:54;;;;;;;6.43;3.58;;;13.10;90.50;;;;;;5110455;28;20027;-73
2022/03/27 11:13:26;;;;;;;5.07;4.22;;;13.20;91.60;;;;;;5110472;28;20467;-73
2022/03/27 11:16:05;;;;;;;4.38;3.90;;;13.20;91.50;;;;;;5109741;28;20035;-73
2022/03/27 11:18:48;;;;;;;3.35;3.05;;;13.30;90.80;;;;;;5114764;28;20034;-73
2022/03/27 11:21:34;;;;;;;4.28;3.17;;;13.40;86.30;;;;;;5115193;28;20081;-74
2022/03/27 11:24:03;;;;;;;5.72;3.28;;;13.40;88.80;;;;;;5112949;28;20020;-73
2022/03/27 11:26:31;;;;;;;3.95;3.55;;;13.50;90.00;;;;;;5114869;28;20031;-73
2022/03/27 11:29:04;;;;;;;6.93;4.40;;;13.60;88.10;;;;;;5113843;28;20084;-74
2022/03/27 11:31:33;;;;;;;4.95;3.53;;;13.50;86.60;;;;;;5113991;28;20466;-75
2022/03/27 11:34:04;;;;;;;4.47;4.00;;;13.50;87.10;;;;;;5114488;28;20055;-73
2022/03/27 11:36:32;;;;;;;8.52;4.47;;;13.60;88.00;;;;;;5114270;28;20487;-74
2022/03/27 11:39:04;;;;;;;4.40;3.83;;;13.70;88.00;;;;;;5114571;28;20103;-72
2022/03/27 11:41:47;;;;;;;6.65;3.78;;;13.70;87.90;;;;;;5114069;28;20465;-73
2022/03/27 11:47:20;;;;;;;5.55;4.20;;;13.90;86.20;;;;;;5079446;28;20079;-73
2022/03/27 11:49:47;;;;;;;4.68;4.20;;;14.00;86.10;;;;;;5073141;28;20058;-74
2022/03/27 11:52:15;;;;;;;5.07;4.03;;;14.00;86.20;;;;;;5083849;28;20039;-73
2022/03/27 11:54:41;;;;;;;3.97;3.63;;;14.00;84.90;;;;;;5084197;28;20483;-74
2022/03/27 11:57:08;;;;;;;4.05;2.92;;;14.10;85.70;;;;;;5079237;28;20123;-74
2022/03/27 11:59:48;;;;;;;4.18;3.30;;;14.10;85.70;;;;;;5073779;28;20099;-74
2022/03/27 12:02:16;;;;;;;4.40;3.05;;;14.20;82.00;;;;;;5080218;28;20039;-74
2022/03/27 12:04:59;;;;;;;4.25;3.28;;;14.30;82.80;;;;;;5077811;28;20024;-73
2022/03/27 12:07:26;;;;;;;4.13;3.08;;;14.40;81.10;;;;;;5071380;28;20051;-73
2022/03/27 12:10:03;;;;;;;3.67;3.20;;;14.50;80.80;;;;;;5071449;28;20040;-74
2022/03/27 12:12:32;;;;;;;6.40;3.38;;;14.50;80.60;;;;;;5092080;28;20028;-72
2022/03/27 12:15:09;;;;;;;4.43;3.10;;;14.60;76.50;;;;;;5093968;28;20020;-73
2022/03/27 12:17:44;;;;;;;4.05;3.03;;;14.60;80.00;;;;;;5093638;28;20032;-73
2022/03/27 12:20:15;;;;;;;5.78;3.58;;;14.70;75.90;;;;;;5092738;28;20023;-74
2022/03/27 12:22:46;;;;;;;4.88;3.30;;;14.70;77.50;;;;;;5073921;28;20070;-75
2022/03/27 12:25:15;;;;;;;6.32;3.10;;;14.80;77.10;;;;;;5091838;28;20081;-74
2022/03/27 12:30:32;;;;;;;4.63;2.90;;;14.90;77.70;;;;;;5079980;28;20031;-73
2022/03/27 12:33:00;;;;;;;6.18;3.25;;;15.00;75.90;;;;;;5073521;28;20016;-73
2022/03/27 12:35:26;;;;;;;6.35;4.53;;;15.10;75.60;;;;;;5074421;28;20020;-73
2022/03/27 12:37:51;;;;;;;7.38;3.30;;;15.10;76.50;;;;;;5073233;28;20094;-73
2022/03/27 12:40:17;;;;;;;3.55;2.95;;;15.10;74.90;;;;;;5072449;28;20542;-73
2022/03/27 12:42:48;;;;;;;17.08;4.25;;;15.20;73.40;;;;;;5076100;28;20032;-73
2022/03/27 12:45:21;;;;;;;3.50;3.13;;;15.30;73.20;;;;;;5091363;28;20468;-74
2022/03/27 12:47:48;;;;;;;4.45;2.95;;;15.40;75.30;;;;;;5085933;28;20032;-74
2022/03/27 12:50:26;;;;;;;3.25;2.28;;;15.50;71.60;;;;;;5088798;28;20020;-74
2022/03/27 12:53:21;;;;;;;3.70;3.03;;;15.50;72.20;;;;;;5091441;28;20023;-73
2022/03/27 12:55:46;;;;;;;7.65;3.50;;;15.50;72.70;;;;;;5081223;28;20124;-73
2022/03/27 12:58:14;;;;;;;6.43;3.15;;;15.50;69.70;;;;;;5072936;28;20480;-75
2022/03/27 13:00:41;;;;;;;4.55;2.58;;;15.60;71.20;;;;;;5072408;28;20046;-73
2022/03/27 13:03:18;;;;;;;4.13;2.75;;;15.70;71.30;;;;;;5072546;28;20051;-73